sensor_id;sensor_type;location;lat;lon;timestamp;pressure;altitude;pressure_sealevel;temperature;humidity
56420;BME280;42323;52.170;7.538;2023-07-29T00:01:55;100317.69;;;18.99;98.93
56420;BME280;42323;52.170;7.538;2023-07-29T00:04:22;100320.28;;;19.11;99.03
56420;BME280;42323;52.170;7.538;2023-07-29T00:06:51;100297.00;;;19.01;98.97
56420;BME280;42323;52.170;7.538;2023-07-29T00:09:18;100297.00;;;19.01;98.87
56420;BME280;42323;52.170;7.538;2023-07-29T00:11:45;100308.91;;;18.98;99.24
56420;BME280;42323;52.170;7.538;2023-07-29T00:14:11;100307.34;;;18.86;100.00
56420;BME280;42323;52.170;7.538;2023-07-29T00:16:38;100298.16;;;18.76;100.00
56420;BME280;42323;52.170;7.538;2023-07-29T00:19:05;100307.53;;;18.79;100.00
56420;BME280;42323;52.170;7.538;2023-07-29T00:21:31;100300.16;;;18.69;100.00
56420;BME280;42323;52.170;7.538;2023-07-29T00:23:58;100295.91;;;18.56;100.00
56420;BME280;42323;52.170;7.538;2023-07-29T00:26:25;100305.72;;;18.56;100.00
56420;BME280;42323;52.170;7.538;2023-07-29T00:28:52;100287.41;;;18.43;100.00
56420;BME280;42323;52.170;7.538;2023-07-29T00:31:18;100277.53;;;18.38;100.00
56420;BME280;42323;52.170;7.538;2023-07-29T00:33:45;100292.50;;;18.44;100.00
56420;BME280;42323;52.170;7.538;2023-07-29T00:36:12;100291.13;;;18.42;100.00
56420;BME280;42323;52.170;7.538;2023-07-29T00:38:38;100304.38;;;18.42;100.00
56420;BME280;42323;52.170;7.538;2023-07-29T00:41:05;100294.03;;;18.40;100.00
56420;BME280;42323;52.170;7.538;2023-07-29T00:43:32;100286.44;;;18.32;100.00
56420;BME280;42323;52.170;7.538;2023-07-29T00:45:59;100286.44;;;18.32;100.00
56420;BME280;42323;52.170;7.538;2023-07-29T00:48:26;100269.66;;;18.15;100.00
56420;BME280;42323;52.170;7.538;2023-07-29T00:50:54;100286.00;;;18.23;100.00
56420;BME280;42323;52.170;7.538;2023-07-29T00:53:21;100286.69;;;18.19;100.00
56420;BME280;42323;52.170;7.538;2023-07-29T00:55:48;100296.81;;;18.22;100.00
56420;BME280;42323;52.170;7.538;2023-07-29T00:58:14;100288.22;;;18.15;100.00
56420;BME280;42323;52.170;7.538;2023-07-29T01:00:41;100290.88;;;18.15;100.00
56420;BME280;42323;52.170;7.538;2023-07-29T01:03:08;100286.47;;;18.09;100.00
56420;BME280;42323;52.170;7.538;2023-07-29T01:08:56;100299.19;;;18.07;100.00
56420;BME280;42323;52.170;7.538;2023-07-29T01:17:23;100283.97;;;17.90;100.00
56420;BME280;42323;52.170;7.538;2023-07-29T01:20:08;100288.81;;;17.93;100.00
56420;BME280;42323;52.170;7.538;2023-07-29T01:22:36;100281.09;;;17.92;100.00
56420;BME280;42323;52.170;7.538;2023-07-29T01:25:03;100274.19;;;17.91;100.00
56420;BME280;42323;52.170;7.538;2023-07-29T01:27:30;100266.94;;;17.86;100.00
56420;BME280;42323;52.170;7.538;2023-07-29T01:29:57;100255.88;;;17.89;100.00
56420;BME280;42323;52.170;7.538;2023-07-29T01:32:41;100255.88;;;17.89;100.00
56420;BME280;42323;52.170;7.538;2023-07-29T01:37:52;100274.41;;;17.89;100.00
56420;BME280;42323;52.170;7.538;2023-07-29T01:40:22;100265.31;;;17.85;100.00
56420;BME280;42323;52.170;7.538;2023-07-29T01:42:49;100270.03;;;17.83;100.00
56420;BME280;42323;52.170;7.538;2023-07-29T01:45:16;100276.97;;;17.84;100.00
56420;BME280;42323;52.170;7.538;2023-07-29T01:47:43;100282.28;;;17.84;100.00
56420;BME280;42323;52.170;7.538;2023-07-29T01:50:10;100282.38;;;17.89;100.00
56420;BME280;42323;52.170;7.538;2023-07-29T01:52:36;100289.16;;;17.97;100.00
56420;BME280;42323;52.170;7.538;2023-07-29T01:55:03;100290.19;;;18.08;100.00
56420;BME280;42323;52.170;7.538;2023-07-29T01:57:30;100282.56;;;18.11;100.00
56420;BME280;42323;52.170;7.538;2023-07-29T01:59:56;100294.50;;;18.25;100.00
56420;BME280;42323;52.170;7.538;2023-07-29T02:02:23;100282.28;;;18.24;100.00
56420;BME280;42323;52.170;7.538;2023-07-29T02:04:49;100276.38;;;18.34;100.00
56420;BME280;42323;52.170;7.538;2023-07-29T02:07:18;100275.91;;;18.37;100.00
56420;BME280;42323;52.170;7.538;2023-07-29T02:09:45;100268.75;;;18.38;100.00
56420;BME280;42323;52.170;7.538;2023-07-29T02:12:12;100266.44;;;18.41;100.00
56420;BME280;42323;52.170;7.538;2023-07-29T02:14:38;100247.88;;;18.41;100.00
56420;BME280;42323;52.170;7.538;2023-07-29T02:17:05;100264.94;;;18.45;100.00
56420;BME280;42323;52.170;7.538;2023-07-29T02:19:31;100247.41;;;18.44;100.00
56420;BME280;42323;52.170;7.538;2023-07-29T02:21:58;100241.75;;;18.41;100.00
56420;BME280;42323;52.170;7.538;2023-07-29T02:24:24;100249.25;;;18.44;100.00
56420;BME280;42323;52.170;7.538;2023-07-29T02:26:51;100236.22;;;18.42;100.00
56420;BME280;42323;52.170;7.538;2023-07-29T02:29:17;100224.25;;;18.40;100.00
56420;BME280;42323;52.170;7.538;2023-07-29T02:31:44;100214.56;;;18.34;100.00
56420;BME280;42323;52.170;7.538;2023-07-29T02:34:10;100225.41;;;18.32;100.00
56420;BME280;42323;52.170;7.538;2023-07-29T02:36:37;100221.63;;;18.28;100.00
56420;BME280;42323;52.170;7.538;2023-07-29T02:39:04;100220.75;;;18.22;100.00
56420;BME280;42323;52.170;7.538;2023-07-29T02:41:30;100223.06;;;18.19;100.00
56420;BME280;42323;52.170;7.538;2023-07-29T02:43:57;100229.97;;;18.20;100.00
56420;BME280;42323;52.170;7.538;2023-07-29T02:46:23;100234.47;;;18.19;100.00
56420;BME280;42323;52.170;7.538;2023-07-29T02:48:50;100228.03;;;18.15;100.00
56420;BME280;42323;52.170;7.538;2023-07-29T02:51:17;100217.22;;;18.05;100.00
56420;BME280;42323;52.170;7.538;2023-07-29T02:53:43;100226.88;;;18.11;100.00
56420;BME280;42323;52.170;7.538;2023-07-29T02:56:10;100232.63;;;18.08;100.00
56420;BME280;42323;52.170;7.538;2023-07-29T02:58:37;100231.38;;;18.11;100.00
56420;BME280;42323;52.170;7.538;2023-07-29T03:01:04;100222.53;;;18.05;100.00
56420;BME280;42323;52.170;7.538;2023-07-29T03:03:32;100224.94;;;18.07;100.00
56420;BME280;42323;52.170;7.538;2023-07-29T03:08:26;100223.88;;;18.08;100.00
56420;BME280;42323;52.170;7.538;2023-07-29T03:10:52;100226.88;;;18.11;100.00
56420;BME280;42323;52.170;7.538;2023-07-29T03:13:19;100216.53;;;18.10;100.00
56420;BME280;42323;52.170;7.538;2023-07-29T03:15:45;100238.97;;;18.19;100.00
56420;BME280;42323;52.170;7.538;2023-07-29T03:18:12;100241.38;;;18.20;100.00
56420;BME280;42323;52.170;7.538;2023-07-29T03:20:38;100257.88;;;18.22;100.00
56420;BME280;42323;52.170;7.538;2023-07-29T03:23:05;100237.22;;;18.13;100.00
56420;BME280;42323;52.170;7.538;2023-07-29T03:25:31;100244.72;;;18.16;100.00
56420;BME280;42323;52.170;7.538;2023-07-29T03:27:58;100257.88;;;18.22;100.00
56420;BME280;42323;52.170;7.538;2023-07-29T03:30:25;100245.88;;;18.20;100.00
56420;BME280;42323;52.170;7.538;2023-07-29T03:32:52;100228.13;;;18.09;100.00
56420;BME280;42323;52.170;7.538;2023-07-29T03:35:19;100219.03;;;18.04;100.00
56420;BME280;42323;52.170;7.538;2023-07-29T03:37:45;100256.81;;;18.23;100.00
56420;BME280;42323;52.170;7.538;2023-07-29T03:40:12;100238.63;;;18.15;100.00
56420;BME280;42323;52.170;7.538;2023-07-29T03:42:38;100256.56;;;18.25;100.00
56420;BME280;42323;52.170;7.538;2023-07-29T03:45:05;100244.81;;;18.21;100.00
56420;BME280;42323;52.170;7.538;2023-07-29T03:47:32;100241.97;;;18.22;100.00
56420;BME280;42323;52.170;7.538;2023-07-29T03:49:58;100237.44;;;18.23;100.00
56420;BME280;42323;52.170;7.538;2023-07-29T03:52:25;100228.81;;;18.16;100.00
56420;BME280;42323;52.170;7.538;2023-07-29T03:54:52;100234.47;;;18.19;100.00
56420;BME280;42323;52.170;7.538;2023-07-29T03:57:18;100243.22;;;18.20;100.00
56420;BME280;42323;52.170;7.538;2023-07-29T03:59:45;100249.09;;;18.22;100.00
56420;BME280;42323;52.170;7.538;2023-07-29T04:02:11;100240.56;;;18.20;100.00
56420;BME280;42323;52.170;7.538;2023-07-29T04:04:38;100230.84;;;18.25;100.00
56420;BME280;42323;52.170;7.538;2023-07-29T04:07:05;100215.66;;;18.21;100.00
56420;BME280;42323;52.170;7.538;2023-07-29T04:09:32;100212.91;;;18.16;100.00
56420;BME280;42323;52.170;7.538;2023-07-29T04:11:59;100232.38;;;18.21;100.00
56420;BME280;42323;52.170;7.538;2023-07-29T04:14:25;100222.56;;;18.22;100.00
56420;BME280;42323;52.170;7.538;2023-07-29T04:16:52;100212.78;;;18.22;100.00
56420;BME280;42323;52.170;7.538;2023-07-29T04:19:18;100206.66;;;18.22;100.00
56420;BME280;42323;52.170;7.538;2023-07-29T04:21:45;100196.38;;;18.25;100.00
56420;BME280;42323;52.170;7.538;2023-07-29T04:24:12;100210.44;;;18.26;100.00
56420;BME280;42323;52.170;7.538;2023-07-29T04:26:39;100202.31;;;18.16;100.00
56420;BME280;42323;52.170;7.538;2023-07-29T04:29:05;100218.97;;;18.28;100.00
56420;BME280;42323;52.170;7.538;2023-07-29T04:31:32;100214.00;;;18.32;100.00
56420;BME280;42323;52.170;7.538;2023-07-29T04:33:59;100203.31;;;18.26;100.00
56420;BME280;42323;52.170;7.538;2023-07-29T04:36:25;100211.91;;;18.34;100.00
56420;BME280;42323;52.170;7.538;2023-07-29T04:38:52;100220.28;;;18.42;100.00
56420;BME280;42323;52.170;7.538;2023-07-29T04:41:18;100222.38;;;18.40;100.00
56420;BME280;42323;52.170;7.538;2023-07-29T04:43:45;100223.75;;;18.43;100.00
56420;BME280;42323;52.170;7.538;2023-07-29T04:46:11;100210.56;;;18.48;100.00
56420;BME280;42323;52.170;7.538;2023-07-29T04:48:38;100208.75;;;18.48;100.00
56420;BME280;42323;52.170;7.538;2023-07-29T04:51:04;100209.06;;;18.52;100.00
56420;BME280;42323;52.170;7.538;2023-07-29T04:53:31;100211.56;;;18.59;100.00
56420;BME280;42323;52.170;7.538;2023-07-29T04:55:57;100210.50;;;18.60;100.00
56420;BME280;42323;52.170;7.538;2023-07-29T04:58:24;100201.41;;;18.55;100.00
56420;BME280;42323;52.170;7.538;2023-07-29T05:00:50;100203.84;;;18.57;100.00
56420;BME280;42323;52.170;7.538;2023-07-29T05:03:17;100198.22;;;18.53;100.00
56420;BME280;42323;52.170;7.538;2023-07-29T05:05:43;100195.78;;;18.52;100.00
56420;BME280;42323;52.170;7.538;2023-07-29T05:08:10;100198.56;;;18.57;100.00
56420;BME280;42323;52.170;7.538;2023-07-29T05:10:36;100207.06;;;18.59;100.00
56420;BME280;42323;52.170;7.538;2023-07-29T05:13:03;100206.81;;;18.61;100.00
56420;BME280;42323;52.170;7.538;2023-07-29T05:15:29;100208.53;;;18.67;100.00
56420;BME280;42323;52.170;7.538;2023-07-29T05:17:56;100200.31;;;18.68;100.00
56420;BME280;42323;52.170;7.538;2023-07-29T05:20:23;100209.22;;;18.74;100.00
56420;BME280;42323;52.170;7.538;2023-07-29T05:22:49;100215.41;;;18.79;100.00
56420;BME280;42323;52.170;7.538;2023-07-29T05:25:16;100209.28;;;18.79;100.00
56420;BME280;42323;52.170;7.538;2023-07-29T05:27:42;100213.56;;;18.80;100.00
56420;BME280;42323;52.170;7.538;2023-07-29T05:30:09;100222.19;;;18.87;100.00
56420;BME280;42323;52.170;7.538;2023-07-29T05:32:35;100233.94;;;18.91;100.00
56420;BME280;42323;52.170;7.538;2023-07-29T05:35:02;100222.06;;;18.82;100.00
56420;BME280;42323;52.170;7.538;2023-07-29T05:37:29;100231.81;;;18.93;100.00
56420;BME280;42323;52.170;7.538;2023-07-29T05:39:55;100243.00;;;18.95;100.00
56420;BME280;42323;52.170;7.538;2023-07-29T05:42:22;100235.03;;;18.95;100.00
56420;BME280;42323;52.170;7.538;2023-07-29T05:44:48;100216.94;;;18.92;100.00
56420;BME280;42323;52.170;7.538;2023-07-29T05:47:15;100216.94;;;18.92;100.00
56420;BME280;42323;52.170;7.538;2023-07-29T05:49:41;100218.69;;;19.03;100.00
56420;BME280;42323;52.170;7.538;2023-07-29T05:52:08;100179.59;;;18.99;100.00
56420;BME280;42323;52.170;7.538;2023-07-29T05:54:34;100204.28;;;19.16;100.00
56420;BME280;42323;52.170;7.538;2023-07-29T05:57:01;100207.50;;;19.18;100.00
56420;BME280;42323;52.170;7.538;2023-07-29T05:59:36;100115.06;;;18.65;100.00
56420;BME280;42323;52.170;7.538;2023-07-29T06:02:02;100184.88;;;19.16;100.00
56420;BME280;42323;52.170;7.538;2023-07-29T06:04:30;100202.66;;;19.32;100.00
56420;BME280;42323;52.170;7.538;2023-07-29T06:06:57;100204.03;;;19.35;100.00
56420;BME280;42323;52.170;7.538;2023-07-29T06:09:23;100213.13;;;19.39;100.00
56420;BME280;42323;52.170;7.538;2023-07-29T06:11:51;100212.56;;;19.37;100.00
56420;BME280;42323;52.170;7.538;2023-07-29T06:14:21;100227.22;;;19.39;100.00
56420;BME280;42323;52.170;7.538;2023-07-29T06:16:47;100219.25;;;19.22;100.00
56420;BME280;42323;52.170;7.538;2023-07-29T06:19:14;100249.94;;;19.30;100.00
56420;BME280;42323;52.170;7.538;2023-07-29T06:21:41;100238.00;;;19.16;100.00
56420;BME280;42323;52.170;7.538;2023-07-29T06:24:08;100246.56;;;19.18;100.00
56420;BME280;42323;52.170;7.538;2023-07-29T06:26:36;100250.34;;;19.05;100.00
56420;BME280;42323;52.170;7.538;2023-07-29T06:29:03;100255.97;;;19.09;100.00
56420;BME280;42323;52.170;7.538;2023-07-29T06:31:30;100243.97;;;19.06;100.00
56420;BME280;42323;52.170;7.538;2023-07-29T06:33:59;100243.00;;;19.12;100.00
56420;BME280;42323;52.170;7.538;2023-07-29T06:36:25;100259.72;;;19.29;100.00
56420;BME280;42323;52.170;7.538;2023-07-29T06:38:52;100237.13;;;19.27;100.00
56420;BME280;42323;52.170;7.538;2023-07-29T06:41:18;100259.72;;;19.46;100.00
56420;BME280;42323;52.170;7.538;2023-07-29T06:43:46;100250.78;;;19.52;97.09
56420;BME280;42323;52.170;7.538;2023-07-29T06:46:13;100245.63;;;19.63;94.24
56420;BME280;42323;52.170;7.538;2023-07-29T06:48:39;100255.44;;;19.79;92.86
56420;BME280;42323;52.170;7.538;2023-07-29T06:51:06;100259.00;;;19.90;91.64
56420;BME280;42323;52.170;7.538;2023-07-29T06:53:32;100256.94;;;19.92;88.73
56420;BME280;42323;52.170;7.538;2023-07-29T06:56:00;100257.41;;;19.89;88.20
56420;BME280;42323;52.170;7.538;2023-07-29T06:58:27;100279.88;;;19.98;86.50
56420;BME280;42323;52.170;7.538;2023-07-29T07:00:54;100266.25;;;19.94;83.69
56420;BME280;42323;52.170;7.538;2023-07-29T07:03:23;100265.81;;;19.80;81.12
56420;BME280;42323;52.170;7.538;2023-07-29T07:05:50;100284.19;;;19.82;80.48
56420;BME280;42323;52.170;7.538;2023-07-29T07:08:17;100293.84;;;19.88;80.75
56420;BME280;42323;52.170;7.538;2023-07-29T07:10:43;100307.13;;;19.88;80.60
56420;BME280;42323;52.170;7.538;2023-07-29T07:13:10;100285.16;;;19.76;79.50
56420;BME280;42323;52.170;7.538;2023-07-29T07:15:36;100298.28;;;19.83;79.70
56420;BME280;42323;52.170;7.538;2023-07-29T07:18:03;100303.19;;;19.91;76.89
56420;BME280;42323;52.170;7.538;2023-07-29T07:20:30;100303.63;;;19.83;75.52
56420;BME280;42323;52.170;7.538;2023-07-29T07:22:56;100306.00;;;19.84;75.22
56420;BME280;42323;52.170;7.538;2023-07-29T07:25:23;100300.56;;;19.74;75.60
56420;BME280;42323;52.170;7.538;2023-07-29T07:27:49;100306.06;;;19.89;75.48
56420;BME280;42323;52.170;7.538;2023-07-29T07:30:16;100302.06;;;19.87;75.55
56420;BME280;42323;52.170;7.538;2023-07-29T07:32:42;100287.88;;;19.81;73.50
56420;BME280;42323;52.170;7.538;2023-07-29T07:35:09;100288.41;;;19.78;73.67
56420;BME280;42323;52.170;7.538;2023-07-29T07:37:36;100320.09;;;20.01;73.23
56420;BME280;42323;52.170;7.538;2023-07-29T07:40:02;100303.25;;;19.96;72.81
56420;BME280;42323;52.170;7.538;2023-07-29T07:42:29;100299.38;;;20.03;73.10
56420;BME280;42323;52.170;7.538;2023-07-29T07:44:56;100283.97;;;20.05;72.22
56420;BME280;42323;52.170;7.538;2023-07-29T07:47:22;100301.91;;;20.15;72.46
56420;BME280;42323;52.170;7.538;2023-07-29T07:49:49;100307.47;;;20.14;72.21
56420;BME280;42323;52.170;7.538;2023-07-29T07:52:16;100290.88;;;20.07;71.82
56420;BME280;42323;52.170;7.538;2023-07-29T07:54:43;100305.41;;;19.99;71.66
56420;BME280;42323;52.170;7.538;2023-07-29T07:57:10;100295.50;;;19.94;71.85
56420;BME280;42323;52.170;7.538;2023-07-29T07:59:36;100302.13;;;19.92;71.93
56420;BME280;42323;52.170;7.538;2023-07-29T08:02:03;100308.25;;;19.92;72.31
56420;BME280;42323;52.170;7.538;2023-07-29T08:04:29;100296.34;;;19.95;72.66
56420;BME280;42323;52.170;7.538;2023-07-29T08:06:56;100292.00;;;20.11;71.79
56420;BME280;42323;52.170;7.538;2023-07-29T08:09:22;100300.78;;;20.33;72.09
56420;BME280;42323;52.170;7.538;2023-07-29T08:11:49;100304.19;;;20.50;71.31
56420;BME280;42323;52.170;7.538;2023-07-29T08:14:16;100294.66;;;20.54;71.20
56420;BME280;42323;52.170;7.538;2023-07-29T08:16:42;100300.41;;;20.68;69.82
56420;BME280;42323;52.170;7.538;2023-07-29T08:19:08;100295.31;;;20.67;69.59
56420;BME280;42323;52.170;7.538;2023-07-29T08:21:36;100303.66;;;20.75;69.13
56420;BME280;42323;52.170;7.538;2023-07-29T08:24:02;100287.59;;;20.65;68.58
56420;BME280;42323;52.170;7.538;2023-07-29T08:26:29;100309.28;;;20.79;68.72
56420;BME280;42323;52.170;7.538;2023-07-29T08:28:56;100305.69;;;20.90;68.56
56420;BME280;42323;52.170;7.538;2023-07-29T08:31:23;100306.41;;;21.13;68.25
56420;BME280;42323;52.170;7.538;2023-07-29T08:33:49;100300.22;;;21.34;67.13
56420;BME280;42323;52.170;7.538;2023-07-29T08:36:16;100291.94;;;21.36;66.31
56420;BME280;42323;52.170;7.538;2023-07-29T08:38:42;100296.66;;;21.28;66.30
56420;BME280;42323;52.170;7.538;2023-07-29T08:41:33;100302.25;;;21.27;67.02
56420;BME280;42323;52.170;7.538;2023-07-29T08:44:16;100298.13;;;21.09;67.33
56420;BME280;42323;52.170;7.538;2023-07-29T08:46:44;100291.31;;;20.91;68.23
56420;BME280;42323;52.170;7.538;2023-07-29T08:49:11;100309.59;;;20.83;68.76
56420;BME280;42323;52.170;7.538;2023-07-29T08:51:42;100298.19;;;20.60;69.55
56420;BME280;42323;52.170;7.538;2023-07-29T08:54:10;100297.69;;;20.41;69.88
56420;BME280;42323;52.170;7.538;2023-07-29T08:56:41;100305.91;;;20.40;70.28
56420;BME280;42323;52.170;7.538;2023-07-29T08:59:10;100295.59;;;20.43;70.87
56420;BME280;42323;52.170;7.538;2023-07-29T09:01:41;100288.47;;;20.49;70.47
56420;BME280;42323;52.170;7.538;2023-07-29T09:04:08;100288.94;;;20.68;70.22
56420;BME280;42323;52.170;7.538;2023-07-29T09:06:36;100293.81;;;20.76;69.99
56420;BME280;42323;52.170;7.538;2023-07-29T09:09:07;100289.44;;;20.92;70.04
56420;BME280;42323;52.170;7.538;2023-07-29T09:11:35;100281.31;;;21.09;69.03
56420;BME280;42323;52.170;7.538;2023-07-29T09:14:01;100277.19;;;21.28;67.45
56420;BME280;42323;52.170;7.538;2023-07-29T09:16:28;100288.09;;;21.59;66.86
56420;BME280;42323;52.170;7.538;2023-07-29T09:18:55;100288.31;;;21.94;65.67
56420;BME280;42323;52.170;7.538;2023-07-29T09:21:24;100286.31;;;22.17;64.53
56420;BME280;42323;52.170;7.538;2023-07-29T09:23:53;100279.38;;;22.26;62.46
56420;BME280;42323;52.170;7.538;2023-07-29T09:26:27;100285.22;;;22.13;63.14
56420;BME280;42323;52.170;7.538;2023-07-29T09:28:59;100305.25;;;22.15;62.30
56420;BME280;42323;52.170;7.538;2023-07-29T09:31:27;100301.53;;;22.26;61.40
56420;BME280;42323;52.170;7.538;2023-07-29T09:34:01;100286.59;;;22.31;61.47
56420;BME280;42323;52.170;7.538;2023-07-29T09:36:31;100286.63;;;22.36;62.06
56420;BME280;42323;52.170;7.538;2023-07-29T09:38:58;100281.34;;;22.51;61.04
56420;BME280;42323;52.170;7.538;2023-07-29T09:41:28;100288.59;;;22.76;59.76
56420;BME280;42323;52.170;7.538;2023-07-29T09:43:59;100283.84;;;22.93;58.89
56420;BME280;42323;52.170;7.538;2023-07-29T09:46:35;100273.69;;;23.11;57.97
56420;BME280;42323;52.170;7.538;2023-07-29T09:49:04;100285.44;;;23.40;56.61
56420;BME280;42323;52.170;7.538;2023-07-29T09:51:37;100275.50;;;23.71;55.46
56420;BME280;42323;52.170;7.538;2023-07-29T09:54:04;100281.03;;;23.90;55.38
56420;BME280;42323;52.170;7.538;2023-07-29T09:56:31;100275.06;;;24.14;54.38
56420;BME280;42323;52.170;7.538;2023-07-29T09:58:57;100272.41;;;24.09;54.63
56420;BME280;42323;52.170;7.538;2023-07-29T10:01:24;100279.41;;;23.94;55.31
56420;BME280;42323;52.170;7.538;2023-07-29T10:03:51;100281.31;;;23.89;55.19
56420;BME280;42323;52.170;7.538;2023-07-29T10:06:19;100274.53;;;24.12;54.61
56420;BME280;42323;52.170;7.538;2023-07-29T10:08:47;100297.47;;;24.33;54.34
56420;BME280;42323;52.170;7.538;2023-07-29T10:11:14;100300.75;;;24.15;53.87
56420;BME280;42323;52.170;7.538;2023-07-29T10:13:40;100287.00;;;23.67;55.48
56420;BME280;42323;52.170;7.538;2023-07-29T10:16:10;100284.09;;;23.22;56.67
56420;BME280;42323;52.170;7.538;2023-07-29T10:18:36;100303.59;;;23.18;56.62
56420;BME280;42323;52.170;7.538;2023-07-29T10:21:04;100283.53;;;23.36;55.86
56420;BME280;42323;52.170;7.538;2023-07-29T10:23:35;100292.34;;;23.51;56.65
56420;BME280;42323;52.170;7.538;2023-07-29T10:26:05;100287.81;;;23.47;56.11
56420;BME280;42323;52.170;7.538;2023-07-29T10:28:39;100285.09;;;23.57;56.09
56420;BME280;42323;52.170;7.538;2023-07-29T10:31:07;100299.25;;;23.83;55.90
56420;BME280;42323;52.170;7.538;2023-07-29T10:33:34;100299.16;;;24.19;54.57
56420;BME280;42323;52.170;7.538;2023-07-29T10:36:02;100307.69;;;24.75;53.39
56420;BME280;42323;52.170;7.538;2023-07-29T10:38:29;100291.19;;;24.97;52.35
56420;BME280;42323;52.170;7.538;2023-07-29T10:40:57;100307.75;;;25.10;52.06
56420;BME280;42323;52.170;7.538;2023-07-29T10:43:34;100298.16;;;25.62;50.74
56420;BME280;42323;52.170;7.538;2023-07-29T10:46:18;100301.19;;;25.26;51.23
56420;BME280;42323;52.170;7.538;2023-07-29T10:53:55;100289.53;;;24.67;53.64
56420;BME280;42323;52.170;7.538;2023-07-29T10:56:33;100297.81;;;24.71;53.81
56420;BME280;42323;52.170;7.538;2023-07-29T11:01:51;100275.84;;;25.37;52.35
56420;BME280;42323;52.170;7.538;2023-07-29T11:09:51;100292.50;;;24.61;54.48
56420;BME280;42323;52.170;7.538;2023-07-29T11:12:50;100280.78;;;23.87;56.71
56420;BME280;42323;52.170;7.538;2023-07-29T11:15:28;100278.59;;;23.99;57.67
56420;BME280;42323;52.170;7.538;2023-07-29T11:17:56;100290.31;;;24.68;55.86
56420;BME280;42323;52.170;7.538;2023-07-29T11:20:29;100288.81;;;24.51;56.29
56420;BME280;42323;52.170;7.538;2023-07-29T11:22:58;100286.03;;;25.06;54.61
56420;BME280;42323;52.170;7.538;2023-07-29T11:25:26;100275.34;;;25.88;52.23
56420;BME280;42323;52.170;7.538;2023-07-29T11:27:58;100274.06;;;27.18;48.62
56420;BME280;42323;52.170;7.538;2023-07-29T11:30:25;100268.56;;;28.47;44.37
56420;BME280;42323;52.170;7.538;2023-07-29T11:32:57;100282.16;;;28.42;44.27
56420;BME280;42323;52.170;7.538;2023-07-29T11:35:24;100286.56;;;27.09;47.34
56420;BME280;42323;52.170;7.538;2023-07-29T11:37:52;100284.34;;;26.21;49.58
56420;BME280;42323;52.170;7.538;2023-07-29T11:40:20;100262.53;;;26.23;48.84
56420;BME280;42323;52.170;7.538;2023-07-29T11:42:49;100268.28;;;26.35;48.64
56420;BME280;42323;52.170;7.538;2023-07-29T11:45:17;100276.44;;;26.30;48.69
56420;BME280;42323;52.170;7.538;2023-07-29T11:47:45;100280.19;;;25.86;47.92
56420;BME280;42323;52.170;7.538;2023-07-29T11:50:13;100284.25;;;25.25;49.05
56420;BME280;42323;52.170;7.538;2023-07-29T11:52:45;100287.25;;;24.35;51.04
56420;BME280;42323;52.170;7.538;2023-07-29T11:55:14;100288.03;;;23.61;53.81
56420;BME280;42323;52.170;7.538;2023-07-29T11:57:42;100287.53;;;23.48;54.92
56420;BME280;42323;52.170;7.538;2023-07-29T12:00:10;100279.97;;;23.86;54.36
56420;BME280;42323;52.170;7.538;2023-07-29T12:02:41;100272.81;;;23.71;55.04
56420;BME280;42323;52.170;7.538;2023-07-29T12:05:11;100285.28;;;24.95;52.11
56420;BME280;42323;52.170;7.538;2023-07-29T12:07:39;100274.22;;;26.13;49.30
56420;BME280;42323;52.170;7.538;2023-07-29T12:10:06;100284.34;;;26.40;47.95
56420;BME280;42323;52.170;7.538;2023-07-29T12:12:33;100278.50;;;28.24;44.22
56420;BME280;42323;52.170;7.538;2023-07-29T12:15:04;100270.66;;;27.12;46.10
56420;BME280;42323;52.170;7.538;2023-07-29T12:17:30;100247.56;;;25.74;49.00
56420;BME280;42323;52.170;7.538;2023-07-29T12:19:59;100263.84;;;24.95;50.63
56420;BME280;42323;52.170;7.538;2023-07-29T12:22:25;100274.84;;;24.60;51.83
56420;BME280;42323;52.170;7.538;2023-07-29T12:24:52;100266.19;;;25.65;50.36
56420;BME280;42323;52.170;7.538;2023-07-29T12:27:21;100272.84;;;27.24;46.84
56420;BME280;42323;52.170;7.538;2023-07-29T12:29:51;100275.81;;;28.83;42.25
56420;BME280;42323;52.170;7.538;2023-07-29T12:32:18;100248.53;;;28.25;43.61
56420;BME280;42323;52.170;7.538;2023-07-29T12:34:45;100270.66;;;26.61;47.68
56420;BME280;42323;52.170;7.538;2023-07-29T12:37:17;100191.84;;;25.18;50.00
56420;BME280;42323;52.170;7.538;2023-07-29T12:40:22;100287.78;;;24.87;51.92
56420;BME280;42323;52.170;7.538;2023-07-29T12:42:50;100286.75;;;24.33;54.30
56420;BME280;42323;52.170;7.538;2023-07-29T12:45:18;100264.97;;;23.95;55.03
56420;BME280;42323;52.170;7.538;2023-07-29T12:47:44;100274.63;;;23.96;55.35
56420;BME280;42323;52.170;7.538;2023-07-29T12:50:11;100276.56;;;24.30;55.44
56420;BME280;42323;52.170;7.538;2023-07-29T12:52:41;100265.84;;;24.40;54.58
56420;BME280;42323;52.170;7.538;2023-07-29T12:55:16;100247.97;;;24.20;55.08
56420;BME280;42323;52.170;7.538;2023-07-29T12:57:49;100251.88;;;24.48;54.39
56420;BME280;42323;52.170;7.538;2023-07-29T13:00:16;100258.88;;;25.18;51.76
56420;BME280;42323;52.170;7.538;2023-07-29T13:02:43;100278.81;;;25.36;52.46
56420;BME280;42323;52.170;7.538;2023-07-29T13:05:11;100276.25;;;25.79;51.69
56420;BME280;42323;52.170;7.538;2023-07-29T13:07:41;100269.97;;;26.31;49.77
56420;BME280;42323;52.170;7.538;2023-07-29T13:10:09;100275.00;;;26.57;47.74
56420;BME280;42323;52.170;7.538;2023-07-29T13:12:39;100258.66;;;27.05;46.47
56420;BME280;42323;52.170;7.538;2023-07-29T13:15:07;100252.66;;;26.18;48.50
56420;BME280;42323;52.170;7.538;2023-07-29T13:17:34;100240.28;;;25.26;49.81